^^
Datos históricos de la estación: Murcia-Puente Tocinos
Diario Informe para Junio 27, 2019 Unidades:  Ingés    Métrico   Ambas
Diario Semanal Mensual Anual
  Máxima: Mínima: Promedio:
Temperatura: 89.8 °F 75.9 °F 82.6 °F
Punto de rocio: 68.2 °F 59.2 °F 63.9 °F
Humedad: 73% 37.5% 55%
Velocidad viento: 17mph 0mph 7.3mph
Racha viento: 30mph - -
Viento- - SE
Presión: 30 in 30 in -
Precipitación: 0 in    
 
 
Tabla de datos para Junio 27, 2019
Hora Temperatura Punto de rocio Presión Viento Velocidad viento Racha viento Humedad Intensidad lluvia(por hora) Nubes
00:04 77.4 °F 68 °F 30 in NNO 1.4 mph 4.7 mph 73% 0 in
00:09 77.4 °F 68 °F 30 in NO 1.6 mph 5 mph 73% 0 in
00:14 77.4 °F 68 °F 30 in NO 2 mph 4 mph 73% 0 in
00:19 77.4 °F 68 °F 30 in NO 1.2 mph 3.6 mph 73% 0 in
00:24 77.4 °F 68 °F 30 in Calm   4 mph 73% 0 in
00:29 77.4 °F 68 °F 30 in ONO 0.7 mph 4.6 mph 73% 0 in
00:34 77.4 °F 68 °F 30 in NO 1.8 mph 5 mph 73% 0 in
00:39 77.4 °F 68 °F 30 in Oeste 1.8 mph 3.5 mph 73% 0 in
00:44 77.4 °F 68 °F 30 in Oeste 1.8 mph 3.6 mph 73% 0 in
00:49 77.4 °F 68 °F 30 in Oeste 1.8 mph 4 mph 73% 0 in
00:54 77.4 °F 68 °F 30 in Oeste 1.8 mph 4.3 mph 73% 0 in
00:59 77.4 °F 68 °F 30 in Oeste 1.8 mph 5.8 mph 73% 0 in
01:04 77.4 °F 68 °F 30 in ONO 1.8 mph 6 mph 73% 0 in
01:09 77.4 °F 68 °F 30 in ONO 1.9 mph 5 mph 73% 0 in
01:14 77.4 °F 68 °F 30 in Oeste 2 mph 3.5 mph 73% 0 in
01:19 77.5 °F 68.2 °F 30 in Oeste 1.7 mph 3.5 mph 73% 0 in
01:24 77.5 °F 68.2 °F 30 in Oeste 1.4 mph 3.5 mph 73% 0 in
01:29 77.5 °F 68.2 °F 30 in Oeste 1.4 mph 3 mph 73% 0 in
01:34 77.5 °F 68.2 °F 30 in Oeste 1.4 mph 1 mph 73% 0 in
01:39 77.5 °F 68.2 °F 30 in SSO 1.4 mph 6.2 mph 73% 0 in
01:44 77.4 °F 68 °F 30 in Sur 1.4 mph 6 mph 73% 0 in
01:49 77.2 °F 67.8 °F 30 in Sur 2.4 mph 6.9 mph 73% 0 in
01:54 77.2 °F 67.8 °F 30 in Sur 4 mph 8.1 mph 73% 0 in
01:59 77 °F 67.6 °F 30 in Sur 4.5 mph 8.1 mph 73% 0 in
02:04 77 °F 67.6 °F 30 in SSE 5.2 mph 8.1 mph 73% 0 in
02:09 76.8 °F 67.5 °F 30 in SO 5 mph 9.2 mph 73% 0 in
02:14 77 °F 67.6 °F 30 in SO 4.7 mph 9 mph 73% 0 in
02:19 76.8 °F 67.5 °F 30 in SE 4.7 mph 11.5 mph 73% 0 in
02:24 76.8 °F 67.5 °F 30 in SO 4.7 mph 12 mph 73% 0 in
02:29 77.2 °F 67.8 °F 30 in ONO 5 mph 11 mph 72.8% 0 in
02:34 77.2 °F 67.5 °F 30 in ESE 5.4 mph 10 mph 72.1% 0 in
02:39 76.8 °F 67.5 °F 30 in SO 5.1 mph 10.4 mph 73% 0 in
02:44 76.8 °F 67.5 °F 30 in SE 4.7 mph 10 mph 73% 0 in
02:49 76.8 °F 67.5 °F 30 in Sur 4.5 mph 7.4 mph 73% 0 in
02:54 76.8 °F 67.5 °F 30 in SE 4.3 mph 7 mph 73% 0 in
02:59 76.8 °F 67.5 °F 30 in SSO 4.3 mph 8.1 mph 73% 0 in
03:04 76.8 °F 67.5 °F 30 in Este 4.3 mph 8 mph 73% 0 in
03:09 76.8 °F 67.5 °F 30 in SSO 4 mph 7.4 mph 73% 0 in
03:14 77 °F 67.6 °F 30 in SSO 3.6 mph 7.4 mph 73% 0 in
03:19 77 °F 67.6 °F 30 in Sur 3.7 mph 7 mph 72.6% 0 in
03:24 77.2 °F 67.5 °F 30 in SSO 4 mph 6 mph 72% 0 in
03:29 77.2 °F 67.5 °F 30 in Sur 3.7 mph 6.4 mph 72% 0 in
03:34 77.2 °F 67.5 °F 30 in SSO 3.1 mph 7 mph 72% 0 in
03:39 77.2 °F 67.5 °F 30 in Sur 3.6 mph 7 mph 72% 0 in
03:44 77.2 °F 67.5 °F 30 in Sur 4.3 mph 9.2 mph 72% 0 in
03:49 77.2 °F 67.5 °F 30 in SSO 4.7 mph 10 mph 72% 0 in
03:54 77.2 °F 67.5 °F 30 in SSO 5.2 mph 10.4 mph 72% 0 in
03:59 77.2 °F 67.5 °F 30 in SO 4.7 mph 6.2 mph 72% 0 in
04:04 77.2 °F 67.5 °F 30 in SSO 4 mph 6.9 mph 72% 0 in
04:09 77.2 °F 67.5 °F 30 in SSO 4 mph 7 mph 71.9% 0 in
04:14 77.4 °F 67.1 °F 30 in SO 4 mph 6.9 mph 71% 0 in
04:19 77.4 °F 67.3 °F 30 in SO 4 mph 7.4 mph 71% 0 in
04:24 77.4 °F 67.3 °F 30 in Sur 4 mph 7 mph 71% 0 in
04:29 77.4 °F 67.1 °F 30 in SSO 4.2 mph 7.4 mph 71% 0 in
04:34 77.2 °F 67.3 °F 30 in SO 4.3 mph 7.4 mph 71.7% 0 in
04:39 77.2 °F 66.9 °F 30 in SO 4.3 mph 7 mph 71% 0 in
04:44 77.2 °F 66.9 °F 30 in SSO 4.3 mph 6 mph 71% 0 in
04:49 77.2 °F 66.9 °F 30 in SO 3.7 mph 8.1 mph 71% 0 in
04:54 77.2 °F 66.9 °F 30 in SSO 2.9 mph 8 mph 71% 0 in
04:59 77.2 °F 66.9 °F 30 in SSO 3.4 mph 6.2 mph 71% 0 in
05:04 77 °F 66.7 °F 30 in Sur 4 mph 6 mph 71% 0 in
05:09 76.8 °F 66.7 °F 30 in SO 3.9 mph 6 mph 71% 0 in
05:14 76.8 °F 66.4 °F 30 in SO 3.6 mph 6 mph 70.3% 0 in
05:19 76.8 °F 66.4 °F 30 in SO 3.1 mph 5.9 mph 70% 0 in
05:24 76.8 °F 66.4 °F 30 in SO 2.4 mph 6 mph 70% 0 in
05:29 76.8 °F 66.2 °F 30 in OSO 2.7 mph 6 mph 69.7% 0 in
05:34 76.8 °F 66 °F 30 in SO 3.1 mph 6.9 mph 69.1% 0 in
05:39 76.8 °F 65.8 °F 30 in SSO 3.5 mph 8.1 mph 69% 0 in
05:44 76.8 °F 65.8 °F 30 in SO 4 mph 8.5 mph 69% 0 in
05:49 76.8 °F 65.8 °F 30 in SO 4.5 mph 9 mph 69% 0 in
05:54 76.8 °F 65.8 °F 30 in SSO 5.2 mph 7 mph 69% 0 in
05:59 76.8 °F 65.8 °F 30 in SO 4.2 mph 5.9 mph 69% 0 in
06:04 76.8 °F 65.8 °F 30 in SSO 3.1 mph 6.9 mph 69% 0 in
06:09 76.8 °F 66 °F 30 in SO 3.3 mph 7 mph 69.1% 0 in
06:14 76.8 °F 66.2 °F 30 in SSO 3.6 mph 6 mph 69.8% 0 in
06:19 76.8 °F 66.2 °F 30 in Sur 2.9 mph 5 mph 70% 0 in
06:24 76.6 °F 66 °F 30 in SO 1.8 mph 5 mph 70% 0 in
06:29 76.5 °F 66 °F 30 in ONO 1.6 mph 4.6 mph 70.2% 0 in
06:34 76.1 °F 66 °F 30 in Oeste 1.4 mph 5 mph 71% 0 in
06:39 75.9 °F 65.8 °F 30 in SO 1.7 mph 5 mph 71% 0 in
06:44 75.9 °F 65.8 °F 30 in NO 2 mph 5 mph 71% 0 in
06:49 75.9 °F 65.8 °F 30 in NO 1.9 mph 4.3 mph 71% 0 in
06:54 75.9 °F 65.5 °F 30 in OSO 1.8 mph 5.2 mph 70% 0 in
06:59 75.9 °F 65.5 °F 30 in Oeste 2.3 mph 5 mph 70% 0 in
07:04 76.1 °F 65.5 °F 30 in ONO 2.9 mph 5 mph 70% 0 in
07:09 75.9 °F 65.5 °F 30 in ONO 2.7 mph 5 mph 70% 0 in
07:14 75.9 °F 65.5 °F 30 in ONO 2.4 mph 4 mph 70% 0 in
07:19 75.9 °F 65.3 °F 30 in ONO 2 mph 3.6 mph 69.5% 0 in
07:24 75.9 °F 64.9 °F 30 in Oeste 1.4 mph 4 mph 69% 0 in
07:29 76.1 °F 65.1 °F 30 in NNE 1.6 mph 4 mph 69% 0 in
07:34 76.1 °F 64.9 °F 30 in NNE 1.8 mph 4 mph 68.5% 0 in
07:39 76.3 °F 64.9 °F 30 in NNO 1.1 mph 5.2 mph 68% 0 in
07:44 76.5 °F 65.3 °F 30 in Calm   5 mph 68.5% 0 in
07:49 76.6 °F 65.3 °F 30 in NNO 0.6 mph 5 mph 67.9% 0 in
07:54 76.8 °F 65.1 °F 30 in NNO 1.4 mph 3 mph 67% 0 in
07:59 77.4 °F 65.3 °F 30 in NNO 1.4 mph 3.5 mph 66.7% 0 in
08:04 77.5 °F 65.3 °F 30 in NNO 1.4 mph 3 mph 66% 0 in
08:09 77.9 °F 65.3 °F 30 in NNO 1.4 mph 3 mph 65.4% 0 in
08:14 78.3 °F 65.3 °F 30 in NNO 1.4 mph 2 mph 64.4% 0 in
08:19 78.6 °F 65.1 °F 30 in NNO 0.8 mph   63.2% 0 in
08:24 79.2 °F 64.9 °F 30 in Calm   3.5 mph 61.6% 0 in
08:29 79.3 °F 64.8 °F 30 in Calm   3 mph 60.8% 0 in
08:34 79.7 °F 64.9 °F 30 in Calm   3.5 mph 60.4% 0 in
08:39 79.9 °F 64.8 °F 30 in NNO 0.7 mph 3.5 mph 60% 0 in
08:44 80.1 °F 64.9 °F 30 in NE 1.8 mph 4 mph 60% 0 in
08:49 80.1 °F 64.8 °F 30 in NNO 1.9 mph 4.7 mph 59.7% 0 in
08:54 80.1 °F 64.8 °F 30 in NNO 2 mph 6.9 mph 59.6% 0 in
08:59 80.1 °F 64.9 °F 30 in NNO 2.5 mph 7 mph 60.1% 0 in
09:04 80.2 °F 65.1 °F 30 in NNO 3.1 mph 6 mph 60% 0 in
09:09 80.4 °F 64.9 °F 30 in NNE 2.6 mph 6.2 mph 59.1% 0 in
09:14 80.8 °F 64.8 °F 30 in North 2 mph 6 mph 58.6% 0 in
09:19 80.8 °F 64.6 °F 30 in North 2.4 mph 6 mph 58% 0 in
09:24 81 °F 64.6 °F 30 in NNE 2.9 mph 8.1 mph 57.8% 0 in
09:29 81.1 °F 64.4 °F 30 in NNE 3.5 mph 10.7 mph 56.7% 0 in
09:34 81.1 °F 64.4 °F 30 in NNE 4.3 mph 11 mph 57% 0 in
09:39 81.1 °F 64.6 °F 30 in NNE 5 mph 10 mph 57% 0 in
09:44 81.5 °F 64.8 °F 30 in NNE 5.9 mph 8.5 mph 56.9% 0 in
09:49 81.9 °F 64.8 °F 30 in NNE 5.7 mph 13.8 mph 56.3% 0 in
09:54 82 °F 64.8 °F 30 in NNE 5.4 mph 14 mph 56% 0 in
09:59 82.2 °F 63.9 °F 30 in NE 6.3 mph 15 mph 53.8% 0 in
10:04 82.6 °F 63.7 °F 30 in NE 7.6 mph 15 mph 52.8% 0 in
10:09 82.9 °F 63.7 °F 30 in NE 8.1 mph 15 mph 52.5% 0 in
10:14 83.3 °F 63.9 °F 30 in NE 8.7 mph 14 mph 52% 0 in
10:19 83.7 °F 63.3 °F 30 in NNE 8.3 mph 14 mph 50.6% 0 in
10:24 83.7 °F 63.3 °F 30 in NNE 7.6 mph 15.2 mph 50.5% 0 in
10:29 84 °F 63.5 °F 30 in NNE 8 mph 15 mph 50.2% 0 in
10:34 84 °F 63.5 °F 30 in NNE 8.5 mph 17.3 mph 50% 0 in
10:39 84.2 °F 63.5 °F 30 in NNE 8.6 mph 17 mph 49.9% 0 in
10:44 84.6 °F 63.5 °F 30 in NE 8.7 mph 16 mph 49.4% 0 in
10:49 85.1 °F 63 °F 30 in NE 8.6 mph 21.5 mph 47.7% 0 in
10:54 85.5 °F 62.8 °F 30 in NE 8.5 mph 22 mph 46.8% 0 in
10:59 85.5 °F 63 °F 30 in NE 10.1 mph 21 mph 47.1% 0 in
11:04 85.6 °F 63.1 °F 30 in NNE 12.3 mph 24.2 mph 47% 0 in
11:09 85.8 °F 62.6 °F 30 in NE 12.6 mph 24 mph 46% 0 in
11:14 85.8 °F 62.4 °F 30 in NE 13 mph 25.3 mph 45.7% 0 in
11:19 85.8 °F 62.2 °F 30 in NE 13.2 mph 25 mph 45.3% 0 in
11:24 86.4 °F 62.6 °F 30 in NNE 13.5 mph 23 mph 45.2% 0 in
11:29 86.5 °F 62.8 °F 30 in NE 12.8 mph 23 mph 45.2% 0 in
11:34 86.5 °F 62.6 °F 30 in NE 11.8 mph 21 mph 44.9% 0 in
11:39 86.7 °F 62.1 °F 30 in NE 12.1 mph 21.3 mph 43.9% 0 in
11:44 87.1 °F 62.8 °F 30 in NE 12.5 mph 21 mph 44.4% 0 in
11:49 87.3 °F 62.2 °F 30 in NE 12.2 mph 22.3 mph 43.3% 0 in
11:54 87.3 °F 62.6 °F 30 in NE 11.8 mph 22 mph 43.9% 0 in
11:59 87.3 °F 62.8 °F 30 in NE 11.3 mph 21 mph 44.1% 0 in
12:04 87.3 °F 62.6 °F 30 in NE 10.7 mph 21.3 mph 43.9% 0 in
12:09 87.1 °F 62.2 °F 30 in ENE 11.4 mph 21 mph 43.6% 0 in
12:14 87.3 °F 62.4 °F 30 in NE 12.5 mph 23 mph 43.7% 0 in
12:19 87.1 °F 63.1 °F 30 in NE 12.4 mph 23 mph 45% 0 in
12:24 87.3 °F 64 °F 30 in ENE 12.3 mph 23 mph 46.1% 0 in
12:29 87.3 °F 64 °F 30 in ENE 11.4 mph 23 mph 46% 0 in
12:34 86.9 °F 63.9 °F 30 in ENE 10.2 mph 21 mph 46.2% 0 in
12:39 86.7 °F 64 °F 30 in NE 10.4 mph 22.5 mph 46.8% 0 in
12:44 86.7 °F 63.7 °F 30 in NE 10.7 mph 23 mph 46.2% 0 in
12:49 86.7 °F 64 °F 30 in Este 11.9 mph 26.5 mph 46.9% 0 in
12:54 86.7 °F 64.2 °F 30 in NE 13.5 mph 26 mph 47.1% 0 in
12:59 86.7 °F 64.2 °F 30 in ENE 12.8 mph 23 mph 47.3% 0 in
13:04 86.9 °F 64 °F 30 in ENE 11.8 mph 21 mph 46.6% 0 in
13:09 87.1 °F 64 °F 30 in ENE 10.9 mph 18.4 mph 46.6% 0 in
13:14 87.1 °F 64.2 °F 30 in ENE 9.7 mph 21.9 mph 46.8% 0 in
13:19 87.1 °F 64.4 °F 30 in ENE 9.9 mph 22 mph 47.1% 0 in
13:24 87.3 °F 64.6 °F 30 in ENE 10.2 mph 21 mph 47% 0 in
13:29 87.3 °F 64.6 °F 30 in NE 10.1 mph 21 mph 46.9% 0 in
13:34 87.3 °F 64.2 °F 30 in NE 10 mph 21.9 mph 46.3% 0 in
13:39 87.3 °F 64.2 °F 30 in ENE 10.9 mph 22.3 mph 46.2% 0 in
13:44 87.4 °F 63.9 °F 30 in ENE 12.3 mph 22 mph 45.6% 0 in
13:49 87.4 °F 63.9 °F 30 in ENE 12 mph 20 mph 45.6% 0 in
13:54 87.4 °F 64 °F 30 in NE 10.7 mph 19.2 mph 46% 0 in
13:59 87.3 °F 63.7 °F 30 in NE 10.5 mph 20 mph 45.6% 0 in
14:04 87.4 °F 63.3 °F 30 in NE 10 mph 20.8 mph 45% 0 in
14:09 87.1 °F 63.7 °F 30 in ENE 10.4 mph 21 mph 45.7% 0 in
14:14 87.3 °F 63.9 °F 30 in ENE 12.3 mph 19 mph 46% 0 in
14:19 87.1 °F 63.9 °F 30 in ENE 11.9 mph 22.3 mph 46% 0 in
14:24 87.1 °F 63.9 °F 30 in ENE 10 mph 22 mph 46.1% 0 in
14:29 87.1 °F 63.9 °F 30 in ENE 10.1 mph 19.6 mph 46% 0 in
14:34 87.3 °F 64 °F 30 in ENE 10.2 mph 20 mph 46% 0 in
14:39 87.4 °F 64.2 °F 30 in NE 10.3 mph 21.9 mph 46.1% 0 in
14:44 87.3 °F 64.4 °F 30 in ENE 10.7 mph 22 mph 46.7% 0 in
14:49 87.4 °F 64 °F 30 in ENE 10.7 mph 23 mph 46% 0 in
14:54 87.6 °F 63.9 °F 30 in ENE 10.7 mph 23 mph 45.5% 0 in
14:59 88 °F 64 °F 30 in Este 10.6 mph 20 mph 45.1% 0 in
15:04 88.2 °F 64 °F 30 in ENE 10.2 mph 19.2 mph 45% 0 in
15:09 88.3 °F 64 °F 30 in ENE 10.2 mph 20 mph 44.5% 0 in
15:14 88.5 °F 63.7 °F 30 in ENE 10.2 mph 18 mph 44% 0 in
15:19 89.1 °F 63.5 °F 30 in NE 10 mph 18.4 mph 43% 0 in
15:24 89.2 °F 62.2 °F 30 in NE 9.2 mph 23 mph 40.7% 0 in
15:29 88.9 °F 63 °F 30 in ENE 9.8 mph 23 mph 42.2% 0 in
15:34 88.3 °F 63.3 °F 30 in ENE 12.3 mph 20 mph 43.3% 0 in
15:39 88 °F 62.8 °F 30 in ENE 11.6 mph 19 mph 43.2% 0 in
15:44 88.2 °F 62.4 °F 30 in NE 9.2 mph 17.8 mph 42.4% 0 in
15:49 88.5 °F 62.4 °F 30 in NE 9.2 mph 18.4 mph 42% 0 in
15:54 88.5 °F 62.6 °F 30 in NE 9.2 mph 22.3 mph 42.2% 0 in
15:59 88.5 °F 62.6 °F 30 in ENE 10 mph 22 mph 42.1% 0 in
16:04 89.1 °F 62.2 °F 30 in ENE 12.3 mph 21 mph 40.9% 0 in
16:09 89.4 °F 61.9 °F 30 in ENE 11.9 mph 22.3 mph 39.8% 0 in
16:14 89.8 °F 61.7 °F 30 in NE 10.7 mph 22 mph 39.4% 0 in
16:19 89.4 °F 61.5 °F 30 in NE 10.8 mph 22 mph 39.6% 0 in
16:24 88.9 °F 61.7 °F 30 in NE 11.2 mph 26.5 mph 40.3% 0 in
16:29 88.7 °F 62.1 °F 30 in ENE 11.7 mph 26 mph 41.2% 0 in
16:34 88.5 °F 61.9 °F 30 in NE 13.7 mph 23.5 mph 41.1% 0 in
16:39 88.3 °F 61.7 °F 30 in NE 13.5 mph 23 mph 41% 0 in
16:44 88.7 °F 61.7 °F 30 in NE 13 mph 23 mph 40.5% 0 in
16:49 89.1 °F 62.2 °F 30 in NE 12.7 mph 29.4 mph 41% 0 in
16:54 89.1 °F 61.9 °F 30 in NE 11.4 mph 30 mph 40.4% 0 in
16:59 89.1 °F 61.3 °F 30 in NE 12 mph 30 mph 39.6% 0 in
17:04 88.9 °F 61 °F 30 in NE 13.7 mph 25.3 mph 39.3% 0 in
17:09 88.5 °F 61 °F 30 in NE 14.2 mph 25.3 mph 39.9% 0 in
17:14 88.9 °F 60.8 °F 30 in NE 15.9 mph 24.6 mph 39.3% 0 in
17:19 89.1 °F 60.8 °F 30 in NE 15.5 mph 25.6 mph 38.8% 0 in
17:24 89.2 °F 60.4 °F 30 in NE 14 mph 27.5 mph 38.2% 0 in
17:29 89.4 °F 60.4 °F 30 in NE 13.9 mph 28 mph 38% 0 in
17:34 89.4 °F 60.3 °F 30 in NE 13.7 mph 26.8 mph 37.7% 0 in
17:39 89.4 °F 60.3 °F 30 in NE 13.7 mph 27 mph 37.5% 0 in
17:44 89.2 °F 60.3 °F 30 in NE 13.5 mph 27 mph 37.8% 0 in
17:49 89.2 °F 60.3 °F 30 in NE 14.1 mph 26 mph 38% 0 in
17:54 89.2 °F 60.3 °F 30 in NE 16.3 mph 27.9 mph 38% 0 in
17:59 88.9 °F 60.4 °F 30 in NE 16.5 mph 28 mph 38.5% 0 in
18:04 88.9 °F 60.6 °F 30 in NE 17 mph 28 mph 39% 0 in
18:09 88.7 °F 60.6 °F 30 in NE 16.7 mph 27.6 mph 39% 0 in
18:14 88.5 °F 60.4 °F 30 in NE 15.6 mph 28 mph 39.1% 0 in
18:19 88.5 °F 60.6 °F 30 in NE 15.4 mph 25.6 mph 39.1% 0 in
18:24 88.3 °F 61 °F 30 in NE 14.7 mph 26 mph 40% 0 in
18:29 88.3 °F 61 °F 30 in NE 14.5 mph 23.5 mph 40% 0 in
18:34 88.3 °F 61 °F 30 in NE 14 mph 26.8 mph 40% 0 in
18:39 88.2 °F 60.8 °F 30 in NE 13.9 mph 27 mph 40% 0 in
18:44 88.2 °F 60.8 °F 30 in NE 13.7 mph 24.2 mph 40% 0 in
18:49 88 °F 60.6 °F 30 in NE 13.7 mph 24 mph 40% 0 in
18:54 88 °F 60.8 °F 30 in NE 13.7 mph 26.5 mph 40.4% 0 in
18:59 87.6 °F 61 °F 30 in NE 13.9 mph 26 mph 40.9% 0 in
19:04 87.6 °F 61 °F 30 in NE 14.5 mph 24 mph 41% 0 in
19:09 87.8 °F 61.2 °F 30 in NE 13.8 mph 22.3 mph 41% 0 in
19:14 87.4 °F 60.8 °F 30 in NE 11.2 mph 24.2 mph 40.8% 0 in
19:19 87.3 °F 60.6 °F 30 in NE 12 mph 25.3 mph 41% 0 in
19:24 87.3 °F 60.6 °F 30 in NE 14.7 mph 25 mph 41% 0 in
19:29 87.3 °F 60.6 °F 30 in NE 14.1 mph 23 mph 41% 0 in
19:34 87.1 °F 60.4 °F 30 in NE 11.8 mph 23 mph 41% 0 in
19:39 87.1 °F 60.4 °F 30 in NE 11.7 mph 21 mph 41% 0 in
19:44 86.9 °F 60.4 °F 30 in NE 11.4 mph 21.9 mph 41% 0 in
19:49 86.5 °F 60.1 °F 30 in NE 11.7 mph 22 mph 41% 0 in
19:54 86.4 °F 60.4 °F 30 in NE 13 mph 21 mph 41.7% 0 in
19:59 86.4 °F 60.4 °F 30 in NE 12.9 mph 21 mph 42% 0 in
20:04 86.2 °F 60.3 °F 30 in NE 12.5 mph 21.3 mph 42% 0 in
20:09 85.8 °F 60.1 °F 30 in NE 12.3 mph 21 mph 42% 0 in
20:14 85.8 °F 60.1 °F 30 in NE 11.4 mph 19.7 mph 42% 0 in
20:19 85.8 °F 60.1 °F 30 in NE 11.2 mph 20 mph 42% 0 in
20:24 85.6 °F 59.9 °F 30 in ENE 10.7 mph 19 mph 42% 0 in
20:29 85.6 °F 59.9 °F 30 in NE 10.9 mph 20.7 mph 41.9% 0 in
20:34 85.3 °F 59.5 °F 30 in NE 11.8 mph 21 mph 42% 0 in
20:39 85.1 °F 59.4 °F 30 in NE 11.4 mph 16 mph 42% 0 in
20:44 84.9 °F 59.2 °F 30 in NE 10.2 mph 21.3 mph 42% 0 in
20:49 84.7 °F 59.2 °F 30 in NE 10.4 mph 21 mph 42% 0 in
20:54 84.6 °F 59.5 °F 30 in NE 11.4 mph 19 mph 42.9% 0 in
20:59 84.6 °F 59.5 °F 30 in NE 10.7 mph 15 mph 43% 0 in
21:04 84.4 °F 59.7 °F 30 in NE 8.5 mph 15.2 mph 43.4% 0 in
21:09 84.4 °F 60.1 °F 30 in NE 8.8 mph 15 mph 44% 0 in
21:14 84 °F 60.3 °F 30 in NE 9.7 mph 14 mph 44.6% 0 in
21:19 83.8 °F 60.3 °F 30 in NE 9.6 mph 15 mph 45% 0 in
21:24 83.7 °F 60.4 °F 30 in NE 9.2 mph 15 mph 45.5% 0 in
21:29 83.3 °F 60.4 °F 30 in NE 9.4 mph 15.2 mph 46% 0 in
21:34 83.1 °F 60.6 °F 30 in NE 10 mph 16.3 mph 46.8% 0 in
21:39 82.9 °F 60.6 °F 30 in NE 9.7 mph 16 mph 47% 0 in
21:44 82.8 °F 60.8 °F 30 in NE 8.7 mph 13 mph 47.5% 0 in
21:49 82.6 °F 61 °F 30 in NE 8.4 mph 15 mph 48% 0 in
21:54 82.4 °F 60.8 °F 30 in NE 7.6 mph 15.2 mph 48.3% 0 in
21:59 82 °F 61.2 °F 30 in NE 8.1 mph 17.3 mph 49% 0 in
22:04 82 °F 61 °F 30 in NE 9.7 mph 17 mph 49% 0 in
22:09 82 °F 61 °F 30 in NE 9.5 mph 16.1 mph 49% 0 in
22:14 81.9 °F 60.8 °F 30 in NE 8.7 mph 16 mph 49% 0 in
22:19 81.9 °F 60.8 °F 30 in NE 8.2 mph 10.4 mph 49% 0 in
22:24 81.5 °F 61 °F 30 in NE 6.2 mph 10.4 mph 49.8% 0 in
22:29 81.3 °F 61 °F 30 in NE 6.2 mph 10 mph 50% 0 in
22:34 81.1 °F 60.6 °F 30 in NE 6.4 mph 9 mph 50% 0 in
22:39 81 °F 60.6 °F 30 in NE 6.2 mph 9 mph 50% 0 in
22:44 81 °F 60.6 °F 30 in NE 5.4 mph 9 mph 50% 0 in
22:49 80.8 °F 60.4 °F 30 in NE 5.3 mph 7 mph 50% 0 in
22:54 80.8 °F 60.3 °F 30 in NE 5.2 mph 7 mph 50% 0 in
22:59 80.6 °F 60.3 °F 30 in NE 4.5 mph 6 mph 50% 0 in
23:04 80.8 °F 60.3 °F 30 in NE 2.4 mph 4 mph 50% 0 in
23:09 80.8 °F 60.3 °F 30 in NE 2.3 mph 4.6 mph 49.8% 0 in
23:14 81 °F 60.1 °F 30 in NE 1.8 mph 5 mph 49.2% 0 in
23:19 81 °F 60.1 °F 30 in NE 1.9 mph 5 mph 49.1% 0 in
23:24 81 °F 60.3 °F 30 in NE 2 mph 4 mph 49.5% 0 in
23:29 80.8 °F 60.4 °F 30 in ONO 2 mph 5 mph 50% 0 in
23:34 80.6 °F 60.3 °F 30 in ONO 1.8 mph 5 mph 50% 0 in
23:39 80.4 °F 60.1 °F 30 in ONO 1.9 mph 5 mph 50% 0 in
23:44 80.4 °F 60.4 °F 30 in ONO 2 mph 4 mph 50.5% 0 in
23:49 80.4 °F 60.6 °F 30 in ONO 2 mph 4.6 mph 51% 0 in
23:54 80.2 °F 60.4 °F 30 in ONO 2 mph 5 mph 51% 0 in
23:59 80.2 °F 60.8 °F 30 in ONO 2.1 mph 5 mph 51.6% 0 in
Murcia-Puente Tocinos, España
Compliments of Weather Underground - 3 mb

La estación de MeteoMurcia.com, publica sus datos en los siguientes proyectos:

Weather Underground PWS IMURCIAP2 Meteoclimatic www.awekas.at

W3Counter
Web Analytics